createdAt,value
2023-05-12T00:00:35.841Z,51.97
2023-05-12T00:01:35.745Z,51.97
2023-05-12T00:02:35.896Z,51.97
2023-05-12T00:03:35.839Z,51.97
2023-05-12T00:04:35.842Z,51.97
2023-05-12T00:05:35.703Z,51.97
2023-05-12T00:06:35.774Z,51.97
2023-05-12T00:07:35.676Z,51.97
2023-05-12T00:08:35.747Z,51.97
2023-05-12T00:09:35.696Z,51.97
2023-05-12T00:10:35.740Z,51.97
2023-05-12T00:11:35.638Z,51.97
2023-05-12T00:12:35.713Z,51.97
2023-05-12T00:13:35.641Z,51.97
2023-05-12T00:14:35.683Z,51.97
2023-05-12T00:15:35.598Z,51.97
2023-05-12T00:16:35.692Z,51.97
2023-05-12T00:17:35.593Z,51.97
2023-05-12T00:18:35.678Z,51.97
2023-05-12T00:19:35.554Z,51.97
2023-05-12T00:20:35.618Z,51.97
2023-05-12T00:21:35.539Z,51.97
2023-05-12T00:22:35.605Z,51.97
2023-05-12T00:23:35.517Z,51.97
2023-05-12T00:24:35.572Z,51.97
2023-05-12T00:25:35.487Z,51.97
2023-05-12T00:26:35.554Z,51.97
2023-05-12T00:27:35.478Z,51.97
2023-05-12T00:28:36.545Z,51.97
2023-05-12T00:29:35.511Z,51.97
2023-05-12T00:30:35.493Z,51.97
2023-05-12T00:31:35.558Z,51.97
2023-05-12T00:32:35.473Z,51.97
2023-05-12T00:33:35.471Z,51.97
2023-05-12T00:34:35.407Z,51.97
2023-05-12T00:35:35.450Z,51.97
2023-05-12T00:36:35.395Z,51.97
2023-05-12T00:37:35.442Z,51.97
2023-05-12T00:38:35.364Z,51.97
2023-05-12T00:39:35.408Z,51.97
2023-05-12T00:40:35.346Z,51.97
2023-05-12T00:41:35.386Z,51.97
2023-05-12T00:42:35.325Z,51.97
2023-05-12T00:43:35.375Z,51.97
2023-05-12T00:44:35.300Z,52.06
2023-05-12T00:45:35.422Z,51.97
2023-05-12T00:46:35.294Z,51.97
2023-05-12T00:47:35.383Z,51.97
2023-05-12T00:48:35.261Z,51.97
2023-05-12T00:49:35.328Z,51.97
2023-05-12T00:50:35.249Z,52.06
2023-05-12T00:51:35.305Z,51.97
2023-05-12T00:52:35.237Z,51.97
2023-05-12T00:53:48.268Z,51.97
2023-05-12T00:54:35.199Z,52.06
2023-05-12T00:55:35.254Z,51.97
2023-05-12T00:56:35.180Z,51.97
2023-05-12T00:57:35.219Z,52.06
2023-05-12T00:58:35.156Z,52.06
2023-05-12T00:59:35.199Z,52.06
2023-05-12T01:00:35.137Z,51.97
2023-05-12T01:01:35.290Z,51.97
2023-05-12T01:02:35.197Z,51.97
2023-05-12T01:03:35.236Z,52.06
2023-05-12T01:04:35.093Z,52.06
2023-05-12T01:05:35.144Z,52.06
2023-05-12T01:06:35.081Z,52.06
2023-05-12T01:07:35.125Z,52.06
2023-05-12T01:08:35.050Z,52.06
2023-05-12T01:09:35.115Z,52.06
2023-05-12T01:10:35.028Z,52.06
2023-05-12T01:11:35.067Z,52.06
2023-05-12T01:12:35.008Z,52.06
2023-05-12T01:13:35.065Z,52.06
2023-05-12T01:14:34.993Z,52.06
2023-05-12T01:15:35.030Z,52.06
2023-05-12T01:16:34.965Z,52.06
2023-05-12T01:17:35.118Z,52.06
2023-05-12T01:18:34.995Z,52.06
2023-05-12T01:19:34.990Z,51.97
2023-05-12T01:20:34.924Z,52.06
2023-05-12T01:21:34.980Z,52.06
2023-05-12T01:22:34.902Z,52.06
2023-05-12T01:23:34.943Z,52.06
2023-05-12T01:24:34.884Z,52.06
2023-05-12T01:25:34.930Z,52.06
2023-05-12T01:26:34.862Z,52.06
2023-05-12T01:27:34.925Z,52.06
2023-05-12T01:28:34.851Z,52.06
2023-05-12T01:29:34.893Z,52.06
2023-05-12T01:30:34.811Z,51.97
2023-05-12T01:31:34.921Z,51.97
2023-05-12T01:32:34.843Z,51.97
2023-05-12T01:33:34.852Z,51.97
2023-05-12T01:34:34.776Z,51.97
2023-05-12T01:35:34.827Z,52.06
2023-05-12T01:36:34.756Z,52.06
2023-05-12T01:37:34.795Z,52.06
2023-05-12T01:38:34.740Z,51.97
2023-05-12T01:39:34.782Z,51.97
2023-05-12T01:40:34.717Z,51.97
2023-05-12T01:41:34.752Z,51.97
2023-05-12T01:42:34.705Z,51.97
2023-05-12T01:43:34.740Z,51.97
2023-05-12T01:44:34.666Z,52.06
2023-05-12T01:45:34.977Z,51.97
2023-05-12T01:46:34.718Z,52.06
2023-05-12T01:47:34.988Z,51.97
2023-05-12T01:48:34.623Z,51.97
2023-05-12T01:49:34.674Z,52.06
2023-05-12T01:50:34.613Z,52.06
2023-05-12T01:51:34.665Z,52.06
2023-05-12T01:52:34.588Z,52.06
2023-05-12T01:53:34.639Z,52.06
2023-05-12T01:54:34.541Z,52.06
2023-05-12T01:55:34.642Z,52.06
2023-05-12T01:56:34.532Z,52.06
2023-05-12T01:57:34.608Z,51.97
2023-05-12T01:58:34.546Z,52.06
2023-05-12T01:59:34.578Z,51.97
2023-05-12T02:00:34.485Z,52.06
2023-05-12T02:01:34.575Z,51.97
2023-05-12T02:02:34.605Z,51.97
2023-05-12T02:03:34.623Z,52.06
2023-05-12T02:04:34.457Z,51.97
2023-05-12T02:05:34.504Z,52.06
2023-05-12T02:06:34.418Z,51.97
2023-05-12T02:07:34.494Z,51.97
2023-05-12T02:08:34.397Z,52.06
2023-05-12T02:09:34.469Z,51.97
2023-05-12T02:10:34.378Z,52.06
2023-05-12T02:11:34.453Z,52.06
2023-05-12T02:12:34.361Z,52.06
2023-05-12T02:13:34.433Z,52.06
2023-05-12T02:14:34.341Z,52.09
2023-05-12T02:15:34.409Z,51.97
2023-05-12T02:16:34.375Z,51.97
2023-05-12T02:17:34.403Z,52.06
2023-05-12T02:18:34.323Z,52.06
2023-05-12T02:19:34.375Z,51.97
2023-05-12T02:20:34.270Z,51.99
2023-05-12T02:21:34.343Z,51.97
2023-05-12T02:22:34.245Z,51.97
2023-05-12T02:23:34.346Z,51.97
2023-05-12T02:24:34.239Z,51.97
2023-05-12T02:25:34.331Z,52.06
2023-05-12T02:26:34.204Z,51.99
2023-05-12T02:27:34.270Z,52.06
2023-05-12T02:28:34.188Z,51.99
2023-05-12T02:29:34.248Z,52.09
2023-05-12T02:30:34.167Z,52.06
2023-05-12T02:31:34.288Z,52.06
2023-05-12T02:32:34.158Z,51.99
2023-05-12T02:33:34.209Z,52.09
2023-05-12T02:34:34.122Z,51.97
2023-05-12T02:35:34.190Z,52.06
2023-05-12T02:36:34.105Z,52.06
2023-05-12T02:37:34.173Z,52.06
2023-05-12T02:38:34.090Z,52.09
2023-05-12T02:39:34.150Z,52.06
2023-05-12T02:40:34.056Z,52.09
2023-05-12T02:41:34.132Z,52.09
2023-05-12T02:42:34.033Z,52.09
2023-05-12T02:43:34.109Z,52.09
2023-05-12T02:44:34.018Z,52.06
2023-05-12T02:45:34.180Z,52.09
2023-05-12T02:46:33.992Z,52.09
2023-05-12T02:47:34.104Z,52.06
2023-05-12T02:48:33.967Z,52.06
2023-05-12T02:49:34.071Z,52.09
2023-05-12T02:50:33.963Z,52.06
2023-05-12T02:51:34.019Z,52.09
2023-05-12T02:52:33.941Z,52.09
2023-05-12T02:53:34.004Z,52.09
2023-05-12T02:54:33.919Z,51.99
2023-05-12T02:55:33.976Z,52.09
2023-05-12T02:56:34.100Z,52.09
2023-05-12T02:57:34.282Z,52.09
2023-05-12T02:58:33.868Z,51.97
2023-05-12T02:59:33.939Z,51.99
2023-05-12T03:00:33.850Z,52.06
2023-05-12T03:01:33.967Z,52.09
2023-05-12T03:02:33.970Z,52.09
2023-05-12T03:03:34.204Z,52.09
2023-05-12T03:04:33.804Z,52.09
2023-05-12T03:05:33.871Z,52.09
2023-05-12T03:06:33.784Z,52.06
2023-05-12T03:07:33.860Z,52.09
2023-05-12T03:08:33.758Z,52.09
2023-05-12T03:09:33.836Z,52.09
2023-05-12T03:10:33.740Z,52.09
2023-05-12T03:11:33.820Z,52.09
2023-05-12T03:12:33.721Z,51.99
2023-05-12T03:13:33.801Z,51.99
2023-05-12T03:14:33.703Z,52.09
2023-05-12T03:15:33.774Z,51.99
2023-05-12T03:16:33.732Z,51.99
2023-05-12T03:17:33.697Z,51.99
2023-05-12T03:18:33.755Z,52.09
2023-05-12T03:19:33.661Z,52.09
2023-05-12T03:20:33.676Z,51.99
2023-05-12T03:21:33.577Z,52.09
2023-05-12T03:22:33.676Z,51.99
2023-05-12T03:23:33.617Z,52.09
2023-05-12T03:24:33.621Z,52.09
2023-05-12T03:25:33.591Z,52.09
2023-05-12T03:26:33.601Z,51.99
2023-05-12T03:27:33.648Z,51.99
2023-05-12T03:28:33.515Z,51.99
2023-05-12T03:29:33.568Z,51.99
2023-05-12T03:30:33.473Z,51.99
2023-05-12T03:31:33.555Z,51.99
2023-05-12T03:32:33.503Z,51.99
2023-05-12T03:33:33.529Z,51.99
2023-05-12T03:34:33.422Z,51.99
2023-05-12T03:35:33.504Z,51.99
2023-05-12T03:36:33.409Z,51.99
2023-05-12T03:37:33.528Z,51.99
2023-05-12T03:38:33.390Z,51.99
2023-05-12T03:39:33.469Z,51.99
2023-05-12T03:40:33.373Z,51.99
2023-05-12T03:41:33.441Z,51.97
2023-05-12T03:42:33.346Z,51.99
2023-05-12T03:43:33.422Z,51.99
2023-05-12T03:44:33.326Z,51.99
2023-05-12T03:45:33.409Z,51.99
2023-05-12T03:46:33.405Z,51.99
2023-05-12T03:47:33.487Z,51.99
2023-05-12T03:48:33.287Z,51.99
2023-05-12T03:49:33.358Z,51.99
2023-05-12T03:50:33.272Z,51.99
2023-05-12T03:51:33.343Z,51.99
2023-05-12T03:52:33.239Z,51.99
2023-05-12T03:53:33.326Z,51.99
2023-05-12T03:54:33.220Z,51.99
2023-05-12T03:55:33.310Z,51.99
2023-05-12T03:56:33.209Z,51.99
2023-05-12T03:57:33.266Z,51.99
2023-05-12T03:58:33.193Z,51.99
2023-05-12T03:59:33.273Z,51.99
2023-05-12T04:00:33.150Z,51.99
2023-05-12T04:01:33.322Z,51.99
2023-05-12T04:02:33.266Z,51.99
2023-05-12T04:03:33.277Z,51.99
2023-05-12T04:04:33.117Z,51.99
2023-05-12T04:05:33.181Z,51.99
2023-05-12T04:06:33.089Z,51.89
2023-05-12T04:07:33.156Z,51.89
2023-05-12T04:08:33.071Z,51.89
2023-05-12T04:09:33.141Z,51.89
2023-05-12T04:10:33.060Z,51.86
2023-05-12T04:11:33.121Z,51.86
2023-05-12T04:12:33.048Z,51.86
2023-05-12T04:13:33.104Z,51.86
2023-05-12T04:14:42.116Z,51.89
2023-05-12T04:15:33.067Z,51.86
2023-05-12T04:16:32.994Z,51.86
2023-05-12T04:17:33.080Z,51.77
2023-05-12T04:18:33.036Z,51.86
2023-05-12T04:19:33.060Z,51.77
2023-05-12T04:20:32.963Z,51.77
2023-05-12T04:21:33.053Z,51.77
2023-05-12T04:22:32.920Z,51.77
2023-05-12T04:23:33.000Z,51.77
2023-05-12T04:24:32.955Z,51.77
2023-05-12T04:25:32.976Z,51.77
2023-05-12T04:26:32.873Z,51.77
2023-05-12T04:27:32.955Z,51.77
2023-05-12T04:28:32.865Z,51.77
2023-05-12T04:29:32.931Z,51.77
2023-05-12T04:30:32.834Z,51.77
2023-05-12T04:31:32.973Z,51.77
2023-05-12T04:32:32.853Z,51.77
2023-05-12T04:33:32.912Z,51.77
2023-05-12T04:34:32.789Z,51.77
2023-05-12T04:35:32.858Z,51.77
2023-05-12T04:36:32.772Z,51.77
2023-05-12T04:37:32.836Z,51.77
2023-05-12T04:38:32.752Z,51.77
2023-05-12T04:39:32.813Z,51.77
2023-05-12T04:40:34.874Z,51.77
2023-05-12T04:41:32.810Z,51.77
2023-05-12T04:42:32.715Z,51.67
2023-05-12T04:44:31.669Z,51.77
2023-05-12T04:45:32.749Z,51.67
2023-05-12T04:46:32.698Z,51.67
2023-05-12T04:47:32.776Z,51.77
2023-05-12T04:48:32.661Z,51.67
2023-05-12T04:49:32.708Z,51.67
2023-05-12T04:50:32.624Z,51.67
2023-05-12T04:51:32.755Z,51.67
2023-05-12T04:52:32.600Z,51.67
2023-05-12T04:53:32.692Z,51.67
2023-05-12T04:54:32.609Z,51.67
2023-05-12T04:55:32.699Z,51.67
2023-05-12T04:56:32.571Z,51.67
2023-05-12T04:57:32.637Z,51.67
2023-05-12T04:58:32.541Z,51.56
2023-05-12T04:59:32.617Z,51.56
2023-05-12T05:00:32.520Z,51.56
2023-05-12T05:01:32.617Z,51.56
2023-05-12T05:02:32.581Z,51.56
2023-05-12T05:03:32.621Z,51.56
2023-05-12T05:04:32.479Z,51.56
2023-05-12T05:05:32.552Z,51.47
2023-05-12T05:06:32.475Z,51.47
2023-05-12T05:07:32.543Z,51.47
2023-05-12T05:08:32.540Z,51.47
2023-05-12T05:09:33.855Z,51.47
2023-05-12T05:10:32.477Z,51.47
2023-05-12T05:11:32.429Z,51.47
2023-05-12T05:12:32.458Z,51.47
2023-05-12T05:13:32.394Z,51.47
2023-05-12T05:14:32.442Z,51.37
2023-05-12T05:15:32.397Z,51.37
2023-05-12T05:16:32.475Z,51.37
2023-05-12T05:17:32.414Z,51.37
2023-05-12T05:18:32.418Z,51.37
2023-05-12T05:19:44.760Z,51.24
2023-05-12T05:20:32.681Z,51.24
2023-05-12T05:21:32.301Z,51.24
2023-05-12T05:22:32.361Z,51.14
2023-05-12T05:23:32.286Z,51.14
2023-05-12T05:24:32.330Z,51.04
2023-05-12T05:25:32.285Z,51.04
2023-05-12T05:26:32.322Z,51.04
2023-05-12T05:27:32.243Z,51.04
2023-05-12T05:28:32.288Z,51.04
2023-05-12T05:29:32.227Z,50.94
2023-05-12T05:30:32.276Z,50.94
2023-05-12T05:31:32.257Z,50.94
2023-05-12T05:32:32.303Z,50.94
2023-05-12T05:33:32.185Z,50.94
2023-05-12T05:34:32.254Z,50.94
2023-05-12T05:35:32.163Z,50.94
2023-05-12T05:36:32.216Z,50.94
2023-05-12T05:37:32.148Z,50.94
2023-05-12T05:38:32.178Z,50.94
2023-05-12T05:39:32.117Z,50.94
2023-05-12T05:40:44.900Z,50.94
2023-05-12T05:41:32.096Z,50.94
2023-05-12T05:42:32.155Z,50.84
2023-05-12T05:43:32.082Z,50.84
2023-05-12T05:44:32.123Z,50.84
2023-05-12T05:45:32.056Z,50.84
2023-05-12T05:46:32.164Z,50.84
2023-05-12T05:47:32.039Z,50.84
2023-05-12T05:48:32.075Z,50.84
2023-05-12T05:49:32.012Z,50.84
2023-05-12T05:50:32.049Z,50.84
2023-05-12T05:51:31.989Z,50.84
2023-05-12T05:52:32.037Z,50.94
2023-05-12T05:53:31.967Z,51.02
2023-05-12T05:54:32.012Z,50.92
2023-05-12T05:55:31.943Z,50.92
2023-05-12T05:56:31.993Z,50.92
2023-05-12T05:57:31.931Z,50.84
2023-05-12T05:58:31.967Z,50.82
2023-05-12T05:59:31.901Z,50.82
2023-05-12T06:00:31.934Z,50.82
2023-05-12T06:01:31.904Z,50.82
2023-05-12T06:02:32.393Z,50.72
2023-05-12T06:03:32.114Z,50.82
2023-05-12T06:04:31.838Z,50.72
2023-05-12T06:05:31.909Z,50.72
2023-05-12T06:06:31.814Z,50.82
2023-05-12T06:07:31.890Z,50.82
2023-05-12T06:08:31.794Z,51.02
2023-05-12T06:09:31.860Z,51.12
2023-05-12T06:10:31.789Z,51.02
2023-05-12T06:11:31.835Z,51.02
2023-05-12T06:12:31.765Z,51.12
2023-05-12T06:13:31.812Z,51.69
2023-05-12T06:14:31.753Z,51.89
2023-05-12T06:15:31.782Z,51.89
2023-05-12T06:16:31.749Z,51.99
2023-05-12T06:17:32.794Z,51.89
2023-05-12T06:18:31.728Z,51.79
2023-05-12T06:19:31.742Z,51.67
2023-05-12T06:20:31.678Z,51.56
2023-05-12T06:21:31.720Z,51.59
2023-05-12T06:22:31.663Z,51.56
2023-05-12T06:23:31.715Z,51.56
2023-05-12T06:24:31.640Z,51.56
2023-05-12T06:25:31.674Z,51.56
2023-05-12T06:26:31.608Z,51.56
2023-05-12T06:27:31.663Z,51.56
2023-05-12T06:28:31.603Z,51.67
2023-05-12T06:29:31.645Z,51.67
2023-05-12T06:30:31.578Z,51.67
2023-05-12T06:31:31.634Z,51.67
2023-05-12T06:32:31.686Z,51.67
2023-05-12T06:33:31.606Z,51.67
2023-05-12T06:34:31.528Z,51.86
2023-05-12T06:35:31.571Z,51.97
2023-05-12T06:36:31.509Z,51.97
2023-05-12T06:37:31.564Z,52.06
2023-05-12T06:38:31.516Z,51.97
2023-05-12T06:39:31.535Z,51.86
2023-05-12T06:40:31.472Z,51.86
2023-05-12T06:41:31.522Z,51.86
2023-05-12T06:42:31.448Z,51.86
2023-05-12T06:43:31.498Z,51.86
2023-05-12T06:44:31.425Z,51.86
2023-05-12T06:45:31.509Z,51.86
2023-05-12T06:46:31.444Z,51.97
2023-05-12T06:47:31.480Z,51.97
2023-05-12T06:48:31.391Z,52.06
2023-05-12T06:49:31.439Z,52.06
2023-05-12T06:50:31.381Z,52.06
2023-05-12T06:51:31.416Z,51.97
2023-05-12T06:52:31.523Z,51.97
2023-05-12T06:53:31.334Z,52.06
2023-05-12T06:54:32.399Z,51.97
2023-05-12T06:55:31.374Z,51.97
2023-05-12T06:56:31.303Z,52.04
2023-05-12T06:57:31.349Z,52.04
2023-05-12T06:58:31.279Z,52.14
2023-05-12T06:59:31.333Z,52.04
2023-05-12T07:00:31.257Z,52.04
2023-05-12T07:01:31.318Z,51.81
2023-05-12T07:02:31.284Z,51.91
2023-05-12T07:03:31.324Z,51.69
2023-05-12T07:04:31.211Z,51.59
2023-05-12T07:05:31.279Z,51.37
2023-05-12T07:06:31.195Z,50.95
2023-05-12T07:07:31.236Z,50.95
2023-05-12T07:08:31.169Z,50.97
2023-05-12T07:09:31.224Z,50.97
2023-05-12T07:10:31.165Z,50.97
2023-05-12T07:11:31.201Z,50.87
2023-05-12T07:12:31.128Z,50.97
2023-05-12T07:13:31.172Z,50.97
2023-05-12T07:14:31.104Z,51.07
2023-05-12T07:15:32.724Z,51.07
2023-05-12T07:16:31.094Z,51.09
2023-05-12T07:17:31.170Z,51.07
2023-05-12T07:18:32.062Z,50.87
2023-05-12T07:19:31.115Z,50.87
2023-05-12T07:20:31.062Z,50.77
2023-05-12T07:21:31.080Z,50.67
2023-05-12T07:22:31.016Z,50.67
2023-05-12T07:23:31.067Z,50.67
2023-05-12T07:24:30.997Z,50.77
2023-05-12T07:25:31.126Z,50.87
2023-05-12T07:26:30.975Z,50.87
2023-05-12T07:27:31.032Z,51.00
2023-05-12T07:28:30.953Z,51.00
2023-05-12T07:29:30.997Z,51.09
2023-05-12T07:30:30.934Z,51.19
2023-05-12T07:31:31.069Z,51.19
2023-05-12T07:32:30.946Z,51.19
2023-05-12T07:33:30.950Z,51.30
2023-05-12T07:34:30.892Z,51.30
2023-05-12T07:35:30.940Z,51.39
2023-05-12T07:36:30.868Z,51.39
2023-05-12T07:37:30.972Z,51.51
2023-05-12T07:38:30.842Z,51.51
2023-05-12T07:39:30.895Z,51.51
2023-05-12T07:40:30.828Z,51.62
2023-05-12T07:41:32.552Z,51.62
2023-05-12T07:42:30.804Z,51.72
2023-05-12T07:43:30.848Z,51.81
2023-05-12T07:44:30.785Z,51.81
2023-05-12T07:45:30.824Z,51.91
2023-05-12T07:46:30.794Z,51.94
2023-05-12T07:47:30.835Z,52.04
2023-05-12T07:48:30.742Z,52.04
2023-05-12T07:49:30.802Z,52.04
2023-05-12T07:50:30.741Z,52.04
2023-05-12T07:51:30.917Z,52.14
2023-05-12T07:52:30.721Z,52.14
2023-05-12T07:53:30.762Z,52.23
2023-05-12T07:54:30.678Z,52.23
2023-05-12T07:55:30.729Z,52.23
2023-05-12T07:56:30.663Z,52.34
2023-05-12T07:57:30.708Z,52.34
2023-05-12T07:58:30.639Z,52.34
2023-05-12T07:59:30.687Z,52.34
2023-05-12T08:00:30.622Z,52.44
2023-05-12T08:01:30.666Z,52.44
2023-05-12T08:02:30.718Z,52.46
2023-05-12T08:03:30.760Z,52.46
2023-05-12T08:04:30.593Z,52.46
2023-05-12T08:05:30.614Z,52.46
2023-05-12T08:06:30.556Z,52.56
2023-05-12T08:07:30.592Z,52.56
2023-05-12T08:08:30.530Z,52.46
2023-05-12T08:09:30.570Z,52.46
2023-05-12T08:10:30.509Z,52.46
2023-05-12T08:11:30.563Z,52.46
2023-05-12T08:12:30.489Z,52.46
2023-05-12T08:13:30.536Z,52.46
2023-05-12T08:14:30.481Z,52.46
2023-05-12T08:15:30.506Z,52.46
2023-05-12T08:16:30.497Z,52.46
2023-05-12T08:17:30.524Z,52.46
2023-05-12T08:18:30.441Z,52.44
2023-05-12T08:19:30.473Z,52.44
2023-05-12T08:20:30.400Z,52.36
2023-05-12T08:21:30.442Z,52.46
2023-05-12T08:22:30.378Z,52.46
2023-05-12T08:23:30.431Z,52.36
2023-05-12T08:24:30.573Z,52.36
2023-05-12T08:25:30.483Z,52.36
2023-05-12T08:26:31.742Z,52.46
2023-05-12T08:27:30.390Z,52.36
2023-05-12T08:28:30.318Z,52.36
2023-05-12T08:29:30.367Z,52.36
2023-05-12T08:30:30.309Z,52.36
2023-05-12T08:31:30.393Z,52.36
2023-05-12T08:32:30.325Z,52.36
2023-05-12T08:33:30.321Z,52.46
2023-05-12T08:34:30.252Z,52.46
2023-05-12T08:35:30.294Z,52.46
2023-05-12T08:36:30.236Z,52.46
2023-05-12T08:37:31.843Z,52.46
2023-05-12T08:38:30.213Z,52.36
2023-05-12T08:39:30.250Z,52.46
2023-05-12T08:40:30.205Z,52.46
2023-05-12T08:41:30.236Z,52.36
2023-05-12T08:42:30.166Z,52.36
2023-05-12T08:43:30.218Z,52.36
2023-05-12T08:44:30.146Z,52.46
2023-05-12T08:45:30.193Z,52.46
2023-05-12T08:46:30.164Z,52.46
2023-05-12T08:47:30.390Z,52.46
2023-05-12T08:48:30.124Z,52.46
2023-05-12T08:49:30.156Z,52.46
2023-05-12T08:50:30.078Z,52.46
2023-05-12T08:51:30.132Z,52.46
2023-05-12T08:52:30.072Z,52.46
2023-05-12T08:53:30.125Z,52.46
2023-05-12T08:54:30.033Z,52.46
2023-05-12T08:55:33.541Z,52.46
2023-05-12T08:57:29.762Z,52.36
2023-05-12T08:58:40.459Z,52.36
2023-05-12T08:59:29.974Z,52.36
2023-05-12T09:00:30.053Z,52.36
2023-05-12T09:01:29.991Z,52.36
2023-05-12T09:02:41.075Z,52.36
2023-05-12T09:03:29.960Z,52.36
2023-05-12T09:04:30.037Z,52.36
2023-05-12T09:05:29.907Z,52.36
2023-05-12T09:06:30.029Z,52.36
2023-05-12T09:07:29.886Z,52.36
2023-05-12T09:08:29.960Z,52.36
2023-05-12T09:09:29.872Z,52.36
2023-05-12T09:10:34.598Z,52.36
2023-05-12T09:11:29.848Z,52.36
2023-05-12T09:12:29.919Z,52.36
2023-05-12T09:13:29.824Z,52.36
2023-05-12T09:14:29.890Z,52.36
2023-05-12T09:15:29.821Z,52.36
2023-05-12T09:16:29.912Z,52.36
2023-05-12T09:17:29.797Z,52.36
2023-05-12T09:18:29.860Z,52.36
2023-05-12T09:19:29.770Z,52.36
2023-05-12T09:20:31.740Z,52.36
2023-05-12T09:21:29.743Z,52.36
2023-05-12T09:22:29.832Z,52.27
2023-05-12T09:23:29.715Z,52.36
2023-05-12T09:24:29.800Z,52.27
2023-05-12T09:25:29.694Z,52.36
2023-05-12T09:26:29.781Z,52.36
2023-05-12T09:27:29.684Z,52.36
2023-05-12T09:28:29.752Z,52.27
2023-05-12T09:29:31.725Z,52.36
2023-05-12T09:30:29.666Z,52.39
2023-05-12T09:31:29.770Z,52.27
2023-05-12T09:32:29.729Z,52.36
2023-05-12T09:33:29.685Z,52.36
2023-05-12T09:34:29.706Z,52.36
2023-05-12T09:35:29.666Z,52.36
2023-05-12T09:36:29.588Z,52.36
2023-05-12T09:37:29.633Z,52.36
2023-05-12T09:38:29.571Z,52.36
2023-05-12T09:39:29.670Z,52.36
2023-05-12T09:40:29.601Z,52.27
2023-05-12T09:41:29.607Z,52.27
2023-05-12T09:42:29.535Z,52.27
2023-05-12T09:43:29.577Z,52.27
2023-05-12T09:44:29.525Z,52.29
2023-05-12T09:45:29.553Z,52.29
2023-05-12T09:46:29.573Z,52.27
2023-05-12T09:47:29.605Z,52.29
2023-05-12T09:48:29.465Z,52.29
2023-05-12T09:49:29.508Z,52.29
2023-05-12T09:50:37.415Z,52.29
2023-05-12T09:51:29.422Z,52.29
2023-05-12T09:52:29.505Z,52.29
2023-05-12T09:53:29.398Z,52.27
2023-05-12T09:54:29.492Z,52.27
2023-05-12T09:55:29.385Z,52.27
2023-05-12T09:56:29.466Z,52.27
2023-05-12T09:57:29.359Z,52.16
2023-05-12T09:58:29.430Z,52.06
2023-05-12T09:59:29.333Z,52.06
2023-05-12T10:00:43.434Z,51.97
2023-05-12T10:01:29.405Z,51.86
2023-05-12T10:02:29.530Z,51.84
2023-05-12T10:03:29.312Z,51.86
2023-05-12T10:04:29.612Z,51.74
2023-05-12T10:05:29.278Z,51.64
2023-05-12T10:06:29.354Z,51.64
2023-05-12T10:07:29.246Z,51.64
2023-05-12T10:08:29.323Z,51.64
2023-05-12T10:09:29.235Z,51.56
2023-05-12T10:10:29.293Z,51.56
2023-05-12T10:11:29.202Z,51.56
2023-05-12T10:12:29.276Z,51.67
2023-05-12T10:13:29.182Z,51.67
2023-05-12T10:14:29.256Z,51.67
2023-05-12T10:15:29.157Z,51.67
2023-05-12T10:16:29.307Z,51.67
2023-05-12T10:17:29.176Z,51.67
2023-05-12T10:18:29.344Z,51.67
2023-05-12T10:19:29.131Z,51.77
2023-05-12T10:20:29.179Z,51.77
2023-05-12T10:21:29.101Z,51.77
2023-05-12T10:22:29.177Z,51.77
2023-05-12T10:23:29.094Z,51.77
2023-05-12T10:24:29.153Z,51.77
2023-05-12T10:25:29.065Z,51.77
2023-05-12T10:26:29.093Z,51.86
2023-05-12T10:27:29.047Z,51.86
2023-05-12T10:28:29.098Z,51.86
2023-05-12T10:29:29.034Z,51.86
2023-05-12T10:30:29.072Z,51.86
2023-05-12T10:31:29.078Z,51.86
2023-05-12T10:32:29.095Z,51.86
2023-05-12T10:33:28.984Z,51.86
2023-05-12T10:34:29.028Z,51.86
2023-05-12T10:35:28.957Z,51.86
2023-05-12T10:36:29.014Z,51.86
2023-05-12T10:37:29.202Z,51.86
2023-05-12T10:38:28.912Z,51.97
2023-05-12T10:39:28.984Z,51.97
2023-05-12T10:40:28.898Z,51.89
2023-05-12T10:41:28.965Z,51.97
2023-05-12T10:42:28.869Z,51.97
2023-05-12T10:43:28.936Z,51.99
2023-05-12T10:44:28.851Z,51.97
2023-05-12T10:45:28.927Z,51.99
2023-05-12T10:46:29.091Z,51.99
2023-05-12T10:47:28.916Z,51.99
2023-05-12T10:48:28.825Z,51.99
2023-05-12T10:49:28.887Z,51.99
2023-05-12T10:50:28.947Z,51.99
2023-05-12T10:51:28.792Z,51.99
2023-05-12T10:52:28.850Z,51.99
2023-05-12T10:53:41.480Z,51.99
2023-05-12T10:54:28.822Z,51.99
2023-05-12T10:55:28.871Z,51.99
2023-05-12T10:56:29.002Z,51.99
2023-05-12T10:57:29.112Z,51.99
2023-05-12T10:58:29.168Z,51.99
2023-05-12T10:59:29.125Z,51.99
2023-05-12T11:00:29.426Z,51.99
2023-05-12T11:01:28.919Z,51.99
2023-05-12T11:02:29.377Z,51.99
2023-05-12T11:03:29.082Z,51.99
2023-05-12T11:04:29.600Z,51.99
2023-05-12T11:05:29.400Z,51.99
2023-05-12T11:06:29.118Z,51.99
2023-05-12T11:07:29.964Z,51.99
2023-05-12T11:08:28.825Z,51.99
2023-05-12T11:09:29.361Z,51.99
2023-05-12T11:10:29.260Z,51.99
2023-05-12T11:11:29.389Z,51.99
2023-05-12T11:12:28.628Z,51.99
2023-05-12T11:13:28.552Z,51.99
2023-05-12T11:14:28.605Z,51.99
2023-05-12T11:15:28.536Z,51.99
2023-05-12T11:16:28.656Z,51.99
2023-05-12T11:17:28.595Z,51.99
2023-05-12T11:18:28.615Z,51.99
2023-05-12T11:19:28.484Z,51.99
2023-05-12T11:20:30.762Z,51.99
2023-05-12T11:21:28.677Z,51.99
2023-05-12T11:22:28.518Z,51.99
2023-05-12T11:23:28.446Z,51.99
2023-05-12T11:24:28.499Z,51.99
2023-05-12T11:25:28.443Z,51.99
2023-05-12T11:26:28.467Z,51.99
2023-05-12T11:27:28.411Z,51.99
2023-05-12T11:28:28.467Z,51.99
2023-05-12T11:29:28.384Z,51.99
2023-05-12T11:30:28.424Z,51.99
2023-05-12T11:31:28.392Z,51.99
2023-05-12T11:32:28.445Z,51.99
2023-05-12T11:33:28.350Z,51.99
2023-05-12T11:34:28.380Z,51.89
2023-05-12T11:35:28.327Z,51.99
2023-05-12T11:36:28.373Z,51.99
2023-05-12T11:37:28.296Z,51.99
2023-05-12T11:38:28.361Z,51.99
2023-05-12T11:39:28.290Z,51.99
2023-05-12T11:40:28.320Z,51.99
2023-05-12T11:41:28.254Z,51.99
2023-05-12T11:42:28.294Z,51.99
2023-05-12T11:43:28.230Z,51.99
2023-05-12T11:44:28.287Z,51.99
2023-05-12T11:45:28.211Z,51.99
2023-05-12T11:46:28.280Z,51.99
2023-05-12T11:47:28.211Z,51.89
2023-05-12T11:48:28.243Z,51.99
2023-05-12T11:49:28.182Z,51.99
2023-05-12T11:50:28.231Z,51.99
2023-05-12T11:51:28.149Z,51.89
2023-05-12T11:52:28.190Z,51.89
2023-05-12T11:53:28.132Z,51.99
2023-05-12T11:54:28.341Z,51.89
2023-05-12T11:55:28.109Z,51.89
2023-05-12T11:56:28.175Z,51.89
2023-05-12T11:57:28.104Z,51.89
2023-05-12T11:58:28.139Z,51.89
2023-05-12T11:59:28.065Z,51.89
2023-05-12T12:00:28.117Z,51.89
2023-05-12T12:01:28.044Z,51.89
2023-05-12T12:02:28.253Z,51.89
2023-05-12T12:03:28.085Z,51.89
2023-05-12T12:04:28.086Z,51.89
2023-05-12T12:05:28.005Z,51.89
2023-05-12T12:06:28.041Z,51.89
2023-05-12T12:07:27.984Z,51.89
2023-05-12T12:08:28.023Z,51.89
2023-05-12T12:09:27.956Z,51.89
2023-05-12T12:10:28.011Z,51.89
2023-05-12T12:11:27.946Z,51.89
2023-05-12T12:12:27.993Z,51.79
2023-05-12T12:13:27.919Z,51.79
2023-05-12T12:14:28.006Z,51.79
2023-05-12T12:15:27.902Z,51.79
2023-05-12T12:16:28.080Z,51.79
2023-05-12T12:17:27.895Z,51.79
2023-05-12T12:18:27.946Z,51.79
2023-05-12T12:19:27.881Z,51.79
2023-05-12T12:20:27.891Z,51.79
2023-05-12T12:21:27.847Z,51.79
2023-05-12T12:22:27.883Z,51.79
2023-05-12T12:23:29.329Z,51.79
2023-05-12T12:24:27.866Z,51.79
2023-05-12T12:25:27.799Z,51.79
2023-05-12T12:26:27.849Z,51.79
2023-05-12T12:27:27.779Z,51.79
2023-05-12T12:28:27.818Z,51.69
2023-05-12T12:29:27.748Z,51.69
2023-05-12T12:30:27.793Z,51.69
2023-05-12T12:31:27.796Z,51.79
2023-05-12T12:32:27.798Z,51.79
2023-05-12T12:33:27.706Z,51.69
2023-05-12T12:34:27.756Z,51.79
2023-05-12T12:35:27.716Z,51.69
2023-05-12T12:36:27.737Z,51.69
2023-05-12T12:37:27.673Z,51.69
2023-05-12T12:38:27.720Z,51.69
2023-05-12T12:39:27.643Z,51.69
2023-05-12T12:40:27.692Z,51.69
2023-05-12T12:41:27.634Z,51.69
2023-05-12T12:42:27.709Z,51.69
2023-05-12T12:43:27.607Z,51.69
2023-05-12T12:44:27.654Z,51.69
2023-05-12T12:45:27.600Z,51.69
2023-05-12T12:46:27.663Z,51.69
2023-05-12T12:47:27.576Z,51.59
2023-05-12T12:48:27.596Z,51.69
2023-05-12T12:49:27.537Z,51.69
2023-05-12T12:50:27.585Z,51.59
2023-05-12T12:51:38.516Z,51.59
2023-05-12T12:52:27.681Z,51.59
2023-05-12T12:53:27.497Z,51.59
2023-05-12T12:54:27.793Z,51.59